Time;durP1;ratioP1;P1;durP2;ratioP2;P2;SDS_P1;SDS_P2;PMS_P1;PMS_P2;Temp;Humidity;BMP_temperature;BMP_pressure;BME280_temperature;BME280_humidity;BME280_pressure;Samples;Min_cycle;Max_cycle;Signal;HPM_P1;HPM_P2
2022/05/15 00:00:48;;;;;;;5.80;3.60;;;;;;;10.68;73.22;99679.34;103640;1300;24407;-25
2022/05/15 00:03:19;;;;;;;9.50;3.40;;;;;;;10.57;74.20;99675.38;103731;1300;24192;-25
2022/05/15 00:05:54;;;;;;;4.20;3.10;;;;;;;10.55;73.97;99674.33;103706;1300;25344;-28
2022/05/15 00:08:23;;;;;;;9.30;3.50;;;;;;;10.59;73.56;99681.23;103595;1300;22603;-28
2022/05/15 00:10:52;;;;;;;5.90;3.30;;;;;;;10.61;73.84;99685.63;103767;1300;23765;-28
2022/05/15 00:13:21;;;;;;;9.90;4.60;;;;;;;10.51;74.18;99687.42;103586;1300;25261;-25
2022/05/15 00:15:50;;;;;;;6.30;4.00;;;;;;;10.44;74.77;99686.09;103683;1300;23909;-25
2022/05/15 00:18:20;;;;;;;5.40;3.70;;;;;;;10.48;74.45;99691.35;103711;1300;22629;-25
2022/05/15 00:20:50;;;;;;;5.60;3.30;;;;;;;10.43;75.26;99693.60;103619;1300;24260;-28
2022/05/15 00:23:20;;;;;;;19.20;4.00;;;;;;;10.38;75.35;99694.27;103731;1300;23906;-24
2022/05/15 00:25:49;;;;;;;9.20;4.20;;;;;;;10.37;75.19;99693.08;103707;1300;26176;-30
2022/05/15 00:28:18;;;;;;;6.40;4.10;;;;;;;10.41;75.62;99697.92;103730;1300;22781;-24
2022/05/15 00:30:47;;;;;;;10.40;4.00;;;;;;;10.55;75.55;99703.45;103721;1300;22739;-30
2022/05/15 00:33:16;;;;;;;4.90;3.90;;;;;;;10.60;75.53;99703.00;103547;1300;22499;-24
2022/05/15 00:35:45;;;;;;;5.80;4.20;;;;;;;10.59;75.88;99703.82;103733;1300;23596;-24
2022/05/15 00:38:14;;;;;;;17.20;4.30;;;;;;;10.61;76.32;99702.02;103717;1300;22499;-28
2022/05/15 00:40:44;;;;;;;9.60;5.10;;;;;;;10.57;76.57;99704.26;103756;1300;23612;-25
2022/05/15 00:43:42;;;;;;;6.40;3.40;;;;;;;10.58;76.97;99703.61;103701;1300;23602;-25
2022/05/15 00:46:16;;;;;;;8.00;4.00;;;;;;;10.51;77.36;99703.94;103708;1300;22680;-28
2022/05/15 00:48:46;;;;;;;7.60;4.60;;;;;;;10.53;77.39;99705.36;103705;1300;22519;-24
2022/05/15 00:51:18;;;;;;;19.70;4.20;;;;;;;10.61;77.09;99708.56;103677;1300;25009;-26
2022/05/15 00:53:50;;;;;;;4.40;4.00;;;;;;;10.62;77.07;99709.11;103748;1300;23864;-29
2022/05/15 00:56:20;;;;;;;8.90;4.20;;;;;;;10.67;77.50;99709.55;103738;1300;24260;-25
2022/05/15 00:58:53;;;;;;;9.70;4.20;;;;;;;10.79;76.80;99707.63;103754;1299;24089;-29
2022/05/15 01:01:22;;;;;;;5.30;3.60;;;;;;;10.79;76.77;99704.21;103708;1300;24964;-28
2022/05/15 01:03:51;;;;;;;9.60;4.70;;;;;;;10.86;76.65;99710.73;103740;1300;23813;-27
2022/05/15 01:06:20;;;;;;;10.90;3.80;;;;;;;10.90;76.53;99708.88;103721;1300;22776;-28
2022/05/15 01:08:49;;;;;;;5.30;4.20;;;;;;;10.89;76.50;99706.70;103706;1300;22495;-25
2022/05/15 01:11:18;;;;;;;9.80;5.20;;;;;;;10.89;76.62;99707.98;103608;1300;22585;-25
2022/05/15 01:13:49;;;;;;;8.60;4.10;;;;;;;10.94;76.58;99709.49;103697;1300;22498;-28
2022/05/15 01:16:21;;;;;;;7.80;4.60;;;;;;;10.94;76.47;99701.03;103792;1300;24211;-26
2022/05/15 01:18:54;;;;;;;10.00;4.80;;;;;;;10.96;76.20;99701.66;103622;1300;22789;-25
2022/05/15 01:21:24;;;;;;;7.30;3.40;;;;;;;10.85;76.88;99704.73;103741;1300;24345;-25
2022/05/15 01:23:53;;;;;;;7.60;3.90;;;;;;;10.90;76.56;99707.10;103676;1300;22509;-24
2022/05/15 01:26:23;;;;;;;9.60;3.80;;;;;;;10.78;77.41;99707.88;103748;1300;22499;-28
2022/05/15 01:28:52;;;;;;;4.70;3.30;;;;;;;10.77;77.33;99708.65;103773;1300;22820;-25
2022/05/15 01:31:22;;;;;;;4.90;3.60;;;;;;;10.81;77.75;99706.00;103699;1300;25063;-25
2022/05/15 01:33:51;;;;;;;11.40;4.40;;;;;;;10.75;77.22;99703.80;103687;1300;22510;-25
2022/05/15 01:36:21;;;;;;;10.70;4.90;;;;;;;10.76;77.63;99702.24;103671;1300;22674;-28
2022/05/15 01:38:51;;;;;;;8.60;3.90;;;;;;;10.75;77.94;99701.64;103760;1300;26124;-28
2022/05/15 01:41:20;;;;;;;10.20;4.00;;;;;;;10.71;78.40;99697.60;103746;1300;24221;-25
2022/05/15 01:43:52;;;;;;;7.60;5.00;;;;;;;10.73;78.34;99703.81;103720;1300;23310;-24
2022/05/15 01:46:23;;;;;;;7.90;4.20;;;;;;;10.79;77.89;99701.28;103770;1300;23750;-25
2022/05/15 01:48:52;;;;;;;5.80;4.00;;;;;;;10.85;77.46;99706.37;103712;1300;25332;-27
2022/05/15 01:51:21;;;;;;;8.90;4.70;;;;;;;10.72;78.40;99707.03;103756;1300;22763;-30
2022/05/15 01:53:50;;;;;;;7.00;5.40;;;;;;;10.70;78.19;99712.92;103736;1300;22502;-28
2022/05/15 01:56:19;;;;;;;6.90;5.10;;;;;;;10.67;78.37;99711.90;103703;1300;24979;-24
2022/05/15 01:58:48;;;;;;;6.30;4.00;;;;;;;10.67;78.11;99712.80;103740;1300;23647;-27
2022/05/15 02:01:17;;;;;;;6.80;3.60;;;;;;;10.58;78.88;99713.48;103739;1300;23784;-28
2022/05/15 02:03:46;;;;;;;7.00;3.80;;;;;;;10.59;78.76;99713.66;103711;1300;24980;-29
2022/05/15 02:06:15;;;;;;;6.50;4.40;;;;;;;10.51;79.13;99714.07;103687;1300;22609;-25
2022/05/15 02:08:44;;;;;;;10.30;4.00;;;;;;;10.56;78.90;99713.09;103571;1300;22495;-25
2022/05/15 02:11:14;;;;;;;8.80;4.40;;;;;;;10.52;79.31;99709.33;103780;1300;24208;-26
2022/05/15 02:13:43;;;;;;;8.20;4.30;;;;;;;10.57;79.14;99705.66;103861;1299;24171;-30
2022/05/15 02:16:12;;;;;;;9.20;4.80;;;;;;;10.56;79.02;99709.16;103712;1300;25114;-30
2022/05/15 02:18:41;;;;;;;13.90;4.70;;;;;;;10.57;78.75;99705.33;103519;1300;22803;-24
2022/05/15 02:21:10;;;;;;;13.70;4.90;;;;;;;10.57;79.06;99709.09;103779;1300;24352;-28
2022/05/15 02:23:39;;;;;;;11.50;4.90;;;;;;;10.48;79.44;99710.30;103760;1300;25104;-25
2022/05/15 02:26:08;;;;;;;12.00;4.10;;;;;;;10.40;79.71;99712.90;103522;1300;22919;-30
2022/05/15 02:28:37;;;;;;;7.00;5.30;;;;;;;10.30;80.26;99716.73;103787;1299;22506;-24
2022/05/15 02:31:06;;;;;;;10.70;5.30;;;;;;;10.31;80.05;99726.08;103729;1300;23790;-25
2022/05/15 02:33:36;;;;;;;10.30;4.20;;;;;;;10.26;80.49;99725.14;103716;1300;23750;-24
2022/05/15 02:36:05;;;;;;;7.50;4.40;;;;;;;10.22;80.21;99728.73;103807;1300;24215;-25
2022/05/15 02:38:35;;;;;;;16.60;4.10;;;;;;;10.18;79.68;99725.39;103709;1300;23166;-27
2022/05/15 02:41:04;;;;;;;4.10;3.20;;;;;;;10.18;79.84;99729.59;103779;1300;24317;-28
2022/05/15 02:43:33;;;;;;;6.10;4.00;;;;;;;10.13;80.18;99730.73;103593;1300;24375;-28
2022/05/15 02:46:02;;;;;;;11.00;4.40;;;;;;;10.11;79.24;99728.67;103736;1300;24211;-28
2022/05/15 02:51:03;;;;;;;10.00;4.70;;;;;;;10.13;78.88;99731.02;103806;1300;25047;-26
2022/05/15 02:53:33;;;;;;;9.10;4.10;;;;;;;10.13;78.54;99736.59;103757;1300;23713;-26
2022/05/15 02:56:06;;;;;;;7.00;4.10;;;;;;;10.12;78.70;99737.64;103689;1300;25439;-25
2022/05/15 02:58:35;;;;;;;7.80;4.60;;;;;;;10.03;78.89;99736.13;103710;1300;23964;-30
2022/05/15 03:01:04;;;;;;;7.60;5.00;;;;;;;10.04;78.83;99737.36;103734;1300;23793;-26
2022/05/15 03:03:33;;;;;;;9.70;5.50;;;;;;;9.98;79.19;99735.31;103742;1300;23836;-26
2022/05/15 03:06:04;;;;;;;7.50;4.10;;;;;;;10.02;79.21;99740.44;103770;1300;24189;-29
2022/05/15 03:08:35;;;;;;;8.90;3.50;;;;;;;9.88;80.64;99745.14;103763;1300;23891;-29
2022/05/15 03:11:04;;;;;;;12.70;3.80;;;;;;;9.89;80.05;99744.36;103753;1300;25298;-25
2022/05/15 03:13:33;;;;;;;7.80;3.40;;;;;;;9.90;79.98;99746.53;103672;1300;23602;-28
2022/05/15 03:16:03;;;;;;;12.30;3.40;;;;;;;9.92;79.77;99745.94;103607;1300;23794;-26
2022/05/15 03:18:32;;;;;;;9.00;3.30;;;;;;;9.99;79.51;99744.52;103702;1300;23791;-28
2022/05/15 03:21:01;;;;;;;11.60;3.50;;;;;;;10.00;79.90;99747.27;103763;1300;23917;-29
2022/05/15 03:23:30;;;;;;;4.80;2.50;;;;;;;10.03;80.03;99748.64;103724;1300;24275;-24
2022/05/15 03:25:59;;;;;;;12.30;4.00;;;;;;;10.11;79.27;99749.14;103761;1300;22776;-25
2022/05/15 03:28:28;;;;;;;6.60;2.30;;;;;;;10.15;78.98;99749.59;103699;1300;22499;-24
2022/05/15 03:30:57;;;;;;;8.60;2.70;;;;;;;10.20;78.84;99755.06;103710;1300;23785;-25
2022/05/15 03:33:26;;;;;;;6.10;2.90;;;;;;;10.20;78.79;99753.66;103676;1300;22590;-24
2022/05/15 03:35:55;;;;;;;6.40;2.30;;;;;;;10.26;78.53;99753.80;103710;1300;22502;-28
2022/05/15 03:38:24;;;;;;;4.70;2.00;;;;;;;10.25;78.36;99758.87;103674;1300;22505;-28
2022/05/15 03:40:53;;;;;;;5.10;1.80;;;;;;;10.30;78.03;99762.13;103760;1299;22905;-28
2022/05/15 03:43:22;;;;;;;5.20;2.50;;;;;;;10.26;78.12;99762.71;103710;1300;22495;-28
2022/05/15 03:45:51;;;;;;;2.80;1.90;;;;;;;10.24;77.87;99766.86;103679;1300;23810;-25
2022/05/15 03:48:20;;;;;;;5.70;2.40;;;;;;;10.31;77.65;99766.66;103722;1300;23602;-27
2022/05/15 03:50:49;;;;;;;3.60;2.30;;;;;;;10.36;77.19;99770.88;103729;1300;25204;-30
2022/05/15 03:53:18;;;;;;;1.90;1.50;;;;;;;10.26;77.41;99768.14;103740;1300;22790;-25
2022/05/15 03:55:47;;;;;;;9.60;2.40;;;;;;;10.21;78.28;99772.30;103800;1299;22490;-28
2022/05/15 03:58:16;;;;;;;5.90;2.40;;;;;;;10.24;78.33;99777.09;103756;1300;23735;-25
2022/05/15 04:00:45;;;;;;;4.40;2.60;;;;;;;10.30;77.85;99778.98;103720;1300;24970;-28
2022/05/15 04:03:13;;;;;;;8.00;2.30;;;;;;;10.37;77.03;99779.70;103779;1300;23812;-27
2022/05/15 04:05:42;;;;;;;4.70;1.80;;;;;;;10.39;77.03;99778.64;103743;1300;25088;-26
2022/05/15 04:08:11;;;;;;;4.10;2.00;;;;;;;10.40;77.33;99783.52;103754;1300;22512;-25
2022/05/15 04:10:41;;;;;;;4.50;2.20;;;;;;;10.43;77.29;99785.46;103818;1300;23604;-25
2022/05/15 04:13:09;;;;;;;9.20;2.10;;;;;;;10.45;77.78;99785.92;103734;1300;23795;-25
2022/05/15 04:15:38;;;;;;;9.20;3.10;;;;;;;10.67;77.82;99783.95;103535;1300;23607;-28
2022/05/15 04:18:09;;;;;;;5.60;2.20;;;;;;;10.93;77.23;99788.95;103334;1300;549629;-25
2022/05/15 04:20:38;;;;;;;6.90;2.60;;;;;;;10.83;77.25;99793.59;103631;1300;25227;-28
2022/05/15 04:23:07;;;;;;;4.80;2.60;;;;;;;10.93;77.54;99796.27;103682;1299;22622;-28
2022/05/15 04:25:36;;;;;;;6.70;2.20;;;;;;;11.03;77.38;99797.45;103721;1300;22774;-25
2022/05/15 04:28:06;;;;;;;4.80;2.70;;;;;;;11.13;77.23;99795.58;103723;1300;23653;-27
2022/05/15 04:30:35;;;;;;;4.30;3.10;;;;;;;11.21;77.46;99796.45;103745;1300;22786;-25
2022/05/15 04:33:04;;;;;;;11.80;2.50;;;;;;;11.40;77.34;99801.06;103767;1300;24279;-24
2022/05/15 04:35:34;;;;;;;4.50;2.30;;;;;;;11.48;76.41;99798.41;103749;1300;23757;-24
2022/05/15 04:38:03;;;;;;;9.10;2.40;;;;;;;11.46;76.49;99799.46;103729;1300;23746;-29
2022/05/15 04:40:32;;;;;;;3.60;1.90;;;;;;;11.48;76.50;99804.73;103768;1300;22766;-29
2022/05/15 04:43:01;;;;;;;5.40;2.60;;;;;;;11.43;76.76;99806.27;103717;1300;24118;-28
2022/05/15 04:45:30;;;;;;;6.80;2.50;;;;;;;11.55;76.76;99801.45;103711;1300;22640;-29
2022/05/15 04:47:59;;;;;;;7.80;3.10;;;;;;;11.58;76.79;99802.61;103765;1300;22507;-26
2022/05/15 04:50:28;;;;;;;2.90;2.20;;;;;;;11.57;76.95;99807.11;103714;1300;24381;-25
2022/05/15 04:52:57;;;;;;;4.90;2.10;;;;;;;11.61;77.43;99810.08;103689;1300;24277;-25
2022/05/15 04:55:27;;;;;;;6.70;3.60;;;;;;;11.79;77.13;99810.52;103712;1300;25072;-25
2022/05/15 04:57:56;;;;;;;8.00;2.60;;;;;;;11.93;76.67;99813.85;103691;1300;25127;-30
2022/05/15 05:00:25;;;;;;;4.50;2.90;;;;;;;11.93;76.83;99812.69;103716;1300;25388;-25
2022/05/15 05:02:54;;;;;;;16.20;4.40;;;;;;;12.27;76.48;99820.17;103730;1300;24995;-28
2022/05/15 05:05:23;;;;;;;4.60;2.20;;;;;;;12.72;75.17;99823.67;103695;1300;24340;-28
2022/05/15 05:07:51;;;;;;;3.50;2.40;;;;;;;13.04;73.38;99819.98;103734;1300;24254;-25
2022/05/15 05:10:20;;;;;;;5.80;2.40;;;;;;;13.23;73.27;99817.90;103699;1300;23598;-25
2022/05/15 05:12:49;;;;;;;12.60;2.80;;;;;;;13.56;72.47;99821.77;103746;1300;24985;-25
2022/05/15 05:15:18;;;;;;;4.90;2.00;;;;;;;13.68;71.55;99827.23;103722;1299;22506;-25
2022/05/15 05:17:48;;;;;;;5.50;1.80;;;;;;;14.08;70.05;99826.60;103747;1300;24280;-25
2022/05/15 05:20:17;;;;;;;5.10;2.60;;;;;;;14.39;67.80;99827.31;103751;1300;25153;-26
2022/05/15 05:22:46;;;;;;;7.70;2.70;;;;;;;14.44;66.46;99826.55;103695;1300;23836;-28
2022/05/15 05:25:15;;;;;;;9.10;2.50;;;;;;;14.24;67.35;99832.04;103748;1300;25018;-25
2022/05/15 05:27:45;;;;;;;9.30;2.00;;;;;;;14.48;66.09;99834.08;103779;1300;23170;-28
2022/05/15 05:30:17;;;;;;;5.70;2.10;;;;;;;14.47;67.09;99834.45;103760;1300;23798;-28
2022/05/15 05:32:46;;;;;;;5.80;1.80;;;;;;;14.67;65.43;99836.25;103747;1300;23754;-24
2022/05/15 05:35:16;;;;;;;8.40;2.40;;;;;;;14.82;65.05;99840.04;103691;1300;23754;-29
2022/05/15 05:37:45;;;;;;;6.00;2.30;;;;;;;15.05;63.98;99844.55;103746;1300;23845;-29
2022/05/15 05:40:14;;;;;;;9.00;2.10;;;;;;;15.11;61.97;99845.89;103630;1300;24993;-29
2022/05/15 05:42:43;;;;;;;4.90;2.10;;;;;;;15.16;62.66;99847.89;103790;1300;24365;-25
2022/05/15 05:45:12;;;;;;;4.90;1.40;;;;;;;15.23;61.31;99853.57;103727;1300;23757;-28
2022/05/15 05:47:44;;;;;;;6.70;1.50;;;;;;;15.41;60.80;99854.42;103736;1300;23635;-29
2022/05/15 05:50:13;;;;;;;6.40;1.60;;;;;;;15.86;58.50;99851.23;103747;1300;25347;-25
2022/05/15 05:52:42;;;;;;;1.80;1.10;;;;;;;15.71;58.38;99853.58;103738;1300;22498;-26
2022/05/15 05:55:13;;;;;;;4.90;1.50;;;;;;;15.62;59.53;99855.75;103583;1300;24203;-28
2022/05/15 05:57:43;;;;;;;6.90;2.10;;;;;;;15.85;57.69;99855.80;103738;1300;25098;-28
2022/05/15 06:00:15;;;;;;;6.20;1.00;;;;;;;15.77;57.02;99857.17;103695;1300;22510;-25
2022/05/15 06:02:45;;;;;;;6.30;1.30;;;;;;;15.78;56.56;99858.21;103739;1300;23869;-29
2022/05/15 06:05:14;;;;;;;7.20;1.10;;;;;;;15.96;56.15;99858.66;103704;1300;24067;-23
2022/05/15 06:07:43;;;;;;;9.80;1.20;;;;;;;16.08;55.56;99863.06;103641;1300;25329;-24
2022/05/15 06:10:12;;;;;;;7.30;0.90;;;;;;;16.18;55.34;99861.89;103658;1299;22492;-28
2022/05/15 06:12:42;;;;;;;6.60;0.80;;;;;;;15.84;54.28;99863.21;103683;1300;24211;-28
2022/05/15 06:15:11;;;;;;;4.10;0.90;;;;;;;16.09;53.35;99862.68;103735;1300;22507;-28
2022/05/15 06:17:40;;;;;;;6.10;1.30;;;;;;;15.89;53.74;99866.50;103528;1300;23599;-28
2022/05/15 06:20:10;;;;;;;3.00;1.00;;;;;;;15.64;53.97;99865.59;103675;1300;22592;-28
2022/05/15 06:22:39;;;;;;;6.80;1.30;;;;;;;16.01;54.01;99863.06;103642;1300;22510;-24
2022/05/15 06:25:09;;;;;;;4.80;1.30;;;;;;;16.28;52.87;99865.44;103715;1300;24358;-25
2022/05/15 06:27:39;;;;;;;8.40;1.40;;;;;;;16.29;53.71;99863.80;103714;1300;24311;-28
2022/05/15 06:30:09;;;;;;;5.00;1.20;;;;;;;16.61;53.10;99868.59;103683;1300;25856;-28
2022/05/15 06:32:39;;;;;;;9.00;1.30;;;;;;;16.66;52.10;99870.74;103739;1300;25181;-25
2022/05/15 06:35:09;;;;;;;2.30;0.90;;;;;;;16.22;53.04;99874.91;103736;1300;24230;-25
2022/05/15 06:37:37;;;;;;;3.10;0.70;;;;;;;16.61;53.17;99873.05;103760;1300;22901;-24
2022/05/15 06:40:07;;;;;;;7.00;1.50;;;;;;;17.02;52.72;99867.48;103720;1300;22498;-24
2022/05/15 06:42:36;;;;;;;2.60;1.10;;;;;;;17.11;50.36;99872.10;103730;1300;24208;-28
2022/05/15 06:45:06;;;;;;;2.40;0.90;;;;;;;16.90;50.66;99875.17;103691;1300;22616;-24
2022/05/15 06:47:36;;;;;;;1.70;0.80;;;;;;;16.39;51.42;99881.07;103813;1300;24019;-25
2022/05/15 06:50:07;;;;;;;2.30;1.20;;;;;;;16.44;51.83;99888.07;103772;1300;23462;-28
2022/05/15 06:52:37;;;;;;;3.60;1.20;;;;;;;16.94;51.70;99883.73;103644;1300;24938;-24
2022/05/15 06:55:09;;;;;;;1.70;0.80;;;;;;;16.72;51.73;99890.59;103783;1300;22613;-29
2022/05/15 06:57:38;;;;;;;6.00;1.10;;;;;;;16.72;50.59;99889.88;103773;1300;23745;-25
2022/05/15 07:00:13;;;;;;;4.80;0.70;;;;;;;16.61;50.95;99885.56;103759;1300;23788;-28
2022/05/15 07:02:42;;;;;;;1.80;0.70;;;;;;;16.71;48.69;99882.30;103730;1300;22767;-25
2022/05/15 07:05:13;;;;;;;7.10;1.10;;;;;;;16.39;49.77;99891.40;103566;1300;22496;-25
2022/05/15 07:07:43;;;;;;;3.80;1.20;;;;;;;16.51;49.54;99882.06;103731;1300;24954;-28
2022/05/15 07:10:12;;;;;;;1.60;0.50;;;;;;;16.40;50.60;99885.72;103769;1300;26185;-25
2022/05/15 07:12:41;;;;;;;2.20;1.00;;;;;;;16.75;50.25;99886.35;103738;1300;24993;-28
2022/05/15 07:15:11;;;;;;;6.30;1.30;;;;;;;16.44;50.70;99893.31;103743;1300;25124;-25
2022/05/15 07:17:40;;;;;;;3.10;0.60;;;;;;;16.87;50.28;99887.75;103775;1300;24332;-28
2022/05/15 07:20:09;;;;;;;2.00;0.80;;;;;;;17.33;47.78;99886.92;103721;1300;24208;-25
2022/05/15 07:22:39;;;;;;;1.00;0.30;;;;;;;16.50;50.51;99891.19;103748;1300;24220;-25
2022/05/15 07:25:08;;;;;;;3.10;0.80;;;;;;;16.60;51.23;99897.84;103705;1300;22482;-25
2022/05/15 07:27:37;;;;;;;3.70;1.60;;;;;;;16.55;50.99;99897.21;103723;1300;23957;-25
2022/05/15 07:30:07;;;;;;;3.10;0.60;;;;;;;16.78;51.34;99897.03;103525;1301;25338;-25
2022/05/15 07:32:36;;;;;;;5.30;1.30;;;;;;;16.54;51.04;99900.34;103759;1300;23932;-28
2022/05/15 07:35:06;;;;;;;4.00;0.70;;;;;;;16.57;52.78;99899.57;103570;1300;24983;-25
2022/05/15 07:37:35;;;;;;;4.90;0.90;;;;;;;16.53;53.30;99901.53;103744;1300;22767;-25
2022/05/15 07:40:04;;;;;;;4.10;1.00;;;;;;;17.05;50.95;99904.60;103788;1300;24023;-28
2022/05/15 07:42:34;;;;;;;9.00;0.50;;;;;;;16.90;51.47;99903.58;103746;1300;25018;-30
2022/05/15 07:45:03;;;;;;;5.10;0.80;;;;;;;16.95;50.82;99903.90;103761;1300;22661;-24
2022/05/15 07:47:32;;;;;;;4.90;0.90;;;;;;;16.90;51.40;99901.38;103535;1300;24417;-28
2022/05/15 07:50:02;;;;;;;3.30;0.60;;;;;;;16.65;52.20;99898.55;103748;1300;22518;-30
2022/05/15 07:52:31;;;;;;;1.90;0.50;;;;;;;16.53;53.93;99898.40;103767;1300;22629;-28
2022/05/15 07:55:00;;;;;;;4.40;0.90;;;;;;;16.74;52.32;99898.67;103768;1300;23599;-25
2022/05/15 07:57:29;;;;;;;6.50;0.90;;;;;;;17.19;51.30;99896.27;103776;1300;22509;-25
2022/05/15 07:59:58;;;;;;;8.00;2.90;;;;;;;17.39;51.05;99897.82;103747;1300;23590;-25
2022/05/15 08:02:26;;;;;;;3.10;1.50;;;;;;;17.65;49.59;99900.98;103713;1300;24310;-28
2022/05/15 08:10:00;;;;;;;17.70;1.00;;;;;;;17.47;50.13;99897.66;103670;1300;25070;-25
2022/05/15 08:12:29;;;;;;;2.40;0.90;;;;;;;17.56;50.18;99901.71;103704;1300;23895;-29
2022/05/15 08:14:58;;;;;;;2.30;0.60;;;;;;;17.96;48.91;99898.77;103701;1300;22629;-28
2022/05/15 08:17:27;;;;;;;2.00;0.70;;;;;;;18.15;48.42;99895.73;103648;1300;24342;-24
2022/05/15 08:25:01;;;;;;;1.60;0.40;;;;;;;18.25;46.97;99899.77;103808;1300;22541;-25
2022/05/15 08:27:30;;;;;;;9.20;0.70;;;;;;;18.61;45.74;99896.16;103563;1301;23633;-28
2022/05/15 08:29:59;;;;;;;2.00;0.60;;;;;;;18.44;46.16;99900.88;103688;1300;24338;-25
2022/05/15 08:32:28;;;;;;;1.30;0.50;;;;;;;17.96;46.35;99906.05;103674;1300;23612;-27
2022/05/15 08:34:59;;;;;;;3.20;0.70;;;;;;;18.36;45.61;99900.27;103802;1300;24262;-25
2022/05/15 08:37:30;;;;;;;7.40;0.80;;;;;;;18.04;46.10;99906.19;103725;1300;24218;-28
2022/05/15 08:39:59;;;;;;;5.20;0.80;;;;;;;18.81;45.43;99901.52;103721;1300;25207;-25
2022/05/15 08:42:31;;;;;;;2.40;0.60;;;;;;;19.31;44.82;99902.39;103745;1300;23812;-25
2022/05/15 08:45:00;;;;;;;0.50;0.40;;;;;;;19.39;43.35;99899.53;103752;1300;25073;-25
2022/05/15 08:47:31;;;;;;;7.80;0.40;;;;;;;19.51;40.86;99902.73;103698;1300;24307;-25
2022/05/15 08:50:04;;;;;;;2.20;0.60;;;;;;;19.00;44.05;99898.70;103726;1300;25445;-28
2022/05/15 08:52:38;;;;;;;2.40;0.50;;;;;;;18.43;45.82;99900.41;103750;1300;22951;-25
2022/05/15 08:55:10;;;;;;;1.50;0.40;;;;;;;18.86;44.61;99900.82;103615;1300;24252;-24
2022/05/15 08:57:44;;;;;;;2.00;0.40;;;;;;;19.31;43.25;99901.98;103735;1300;23819;-24
2022/05/15 09:00:16;;;;;;;1.10;0.50;;;;;;;18.94;45.18;99899.11;103732;1300;24298;-30
2022/05/15 09:02:45;;;;;;;3.00;0.50;;;;;;;18.94;46.00;99899.20;103732;1300;23890;-28
2022/05/15 09:05:15;;;;;;;11.20;0.90;;;;;;;19.85;43.06;99895.48;103536;1300;25002;-24
2022/05/15 09:07:51;;;;;;;1.10;0.40;;;;;;;19.84;42.02;99895.11;103688;1300;23736;-30
2022/05/15 09:10:25;;;;;;;2.10;0.30;;;;;;;19.56;42.50;99906.73;103738;1300;24932;-27
2022/05/15 09:13:00;;;;;;;1.50;0.30;;;;;;;19.58;41.24;99900.94;103735;1300;22505;-28
2022/05/15 09:15:30;;;;;;;1.00;0.40;;;;;;;19.22;41.32;99899.30;103651;1299;23615;-28
2022/05/15 09:18:03;;;;;;;5.20;0.50;;;;;;;19.35;41.96;99896.69;103778;1300;25326;-28
2022/05/15 09:20:56;;;;;;;3.00;0.40;;;;;;;18.87;42.84;99897.53;103716;1300;23966;-28
2022/05/15 09:23:34;;;;;;;1.00;0.40;;;;;;;19.23;41.47;99901.07;103682;1300;23898;-24
2022/05/15 09:26:10;;;;;;;7.60;0.70;;;;;;;19.47;41.74;99899.27;103744;1300;24300;-24
2022/05/15 09:28:46;;;;;;;3.00;0.50;;;;;;;19.69;42.17;99896.73;103687;1300;24832;-24
2022/05/15 09:31:19;;;;;;;3.40;0.80;;;;;;;19.85;42.23;99901.46;103598;1300;22790;-28
2022/05/15 09:33:53;;;;;;;1.30;0.40;;;;;;;20.15;40.23;99905.54;103738;1300;23718;-28
2022/05/15 09:36:25;;;;;;;2.30;0.40;;;;;;;20.08;39.11;99909.24;103743;1300;23897;-28
2022/05/15 09:39:00;;;;;;;5.80;0.60;;;;;;;20.41;38.91;99904.85;103764;1300;25186;-24
2022/05/15 09:44:04;;;;;;;0.40;0.20;;;;;;;20.40;39.88;99895.75;103698;1300;25086;-27
2022/05/15 09:46:32;;;;;;;1.60;0.30;;;;;;;19.76;40.14;99903.20;103724;1300;23746;-30
2022/05/15 09:49:06;;;;;;;7.30;0.80;;;;;;;19.48;39.41;99903.69;103754;1300;23508;-24
2022/05/15 09:51:46;;;;;;;3.10;0.60;;;;;;;19.27;40.50;99903.64;103716;1300;23746;-28
2022/05/15 09:54:22;;;;;;;2.60;0.60;;;;;;;19.59;39.39;99902.55;103666;1300;24341;-28
2022/05/15 09:56:51;;;;;;;2.70;0.70;;;;;;;19.37;39.50;99901.80;103563;1300;22509;-28
2022/05/15 09:59:20;;;;;;;1.50;0.40;;;;;;;20.52;37.90;99896.75;103830;1300;24214;-28
2022/05/15 10:01:56;;;;;;;2.20;0.30;;;;;;;20.21;40.84;99895.59;103779;1300;23602;-28
2022/05/15 10:04:28;;;;;;;0.90;0.30;;;;;;;20.46;38.22;99897.59;103739;1300;24231;-25
2022/05/15 10:06:58;;;;;;;2.20;0.60;;;;;;;20.68;37.12;99902.34;103629;1299;23612;-24
2022/05/15 10:09:31;;;;;;;0.80;0.30;;;;;;;20.76;38.25;99895.16;103752;1300;24214;-24
2022/05/15 10:12:02;;;;;;;;;;;;;;;20.72;38.15;99895.02;103573;1300;23655;-24
2022/05/15 10:14:36;;;;;;;1.50;0.30;;;;;;;20.41;38.60;99896.19;103702;1300;23796;-28
2022/05/15 10:17:05;;;;;;;2.10;0.50;;;;;;;20.93;38.58;99883.84;103714;1300;23580;-28
2022/05/15 10:19:40;;;;;;;3.30;0.30;;;;;;;20.41;39.25;99890.10;103765;1300;22599;-25
2022/05/15 10:22:10;;;;;;;1.30;0.40;;;;;;;20.88;38.06;99887.73;103800;1300;23737;-24
2022/05/15 10:24:42;;;;;;;2.00;0.40;;;;;;;20.68;38.08;99891.48;103716;1300;24009;-28
2022/05/15 10:27:16;;;;;;;1.20;0.40;;;;;;;20.73;37.96;99892.27;103756;1300;23815;-28
2022/05/15 10:29:52;;;;;;;3.60;0.50;;;;;;;20.22;38.98;99895.60;103729;1300;22763;-28
2022/05/15 10:32:26;;;;;;;1.50;0.40;;;;;;;20.71;37.68;99885.67;103579;1300;24230;-25
2022/05/15 10:34:56;;;;;;;1.30;0.40;;;;;;;20.81;39.30;99886.77;103797;1300;24211;-25
2022/05/15 10:37:29;;;;;;;0.60;0.30;;;;;;;20.55;38.75;99885.52;103722;1300;25107;-25
2022/05/15 10:40:05;;;;;;;1.70;0.30;;;;;;;20.93;36.95;99886.45;103763;1300;24425;-24
2022/05/15 10:42:42;;;;;;;1.00;0.40;;;;;;;21.18;37.02;99885.98;103727;1300;23641;-24
2022/05/15 10:45:33;;;;;;;1.70;0.30;;;;;;;21.35;35.81;99879.04;103709;1300;22499;-24
2022/05/15 10:48:11;;;;;;;0.50;0.30;;;;;;;20.83;36.86;99884.22;103761;1300;24212;-30
2022/05/15 10:50:46;;;;;;;0.60;0.40;;;;;;;21.07;35.72;99877.77;103483;1300;24211;-28
2022/05/15 10:58:28;;;;;;;2.30;0.30;;;;;;;21.10;35.93;99876.55;103718;1299;22515;-25
2022/05/15 11:01:04;;;;;;;1.00;0.30;;;;;;;21.63;36.13;99874.05;103704;1300;24342;-28
2022/05/15 11:03:36;;;;;;;1.60;0.20;;;;;;;21.31;36.08;99873.14;103768;1300;23517;-24
2022/05/15 11:06:12;;;;;;;2.20;0.40;;;;;;;21.68;35.12;99867.71;103759;1300;24967;-29
2022/05/15 11:08:47;;;;;;;1.30;0.30;;;;;;;21.12;36.20;99869.52;103732;1300;23598;-25
2022/05/15 11:11:23;;;;;;;0.90;0.30;;;;;;;21.19;36.53;99863.39;103676;1300;25128;-25
2022/05/15 11:13:54;;;;;;;1.90;0.30;;;;;;;21.18;35.96;99866.39;103719;1300;24330;-28
2022/05/15 11:16:30;;;;;;;0.60;0.30;;;;;;;21.44;34.96;99872.38;103605;1299;25112;-24
2022/05/15 11:19:06;;;;;;;1.00;0.40;;;;;;;21.51;35.62;99870.31;103659;1300;24221;-25
2022/05/15 11:21:43;;;;;;;0.20;0.20;;;;;;;21.67;35.04;99865.64;103597;1300;24262;-25
2022/05/15 11:24:16;;;;;;;1.20;0.30;;;;;;;21.28;34.99;99850.61;103584;1300;23919;-28
2022/05/15 11:26:49;;;;;;;5.60;0.40;;;;;;;21.51;34.70;99859.16;103708;1300;24416;-28
2022/05/15 11:29:18;;;;;;;0.90;0.30;;;;;;;21.72;33.34;99855.90;103756;1300;25092;-28
2022/05/15 11:31:51;;;;;;;0.60;0.30;;;;;;;21.76;34.24;99857.58;103778;1299;24334;-28
2022/05/15 11:34:20;;;;;;;1.10;0.30;;;;;;;21.96;34.52;99858.52;103729;1300;24469;-28
2022/05/15 11:36:49;;;;;;;0.60;0.20;;;;;;;22.49;33.78;99848.59;103696;1300;25044;-28
2022/05/15 11:39:22;;;;;;;8.10;0.40;;;;;;;22.99;31.36;99852.60;103778;1300;22514;-28
2022/05/15 11:42:08;;;;;;;1.10;0.30;;;;;;;22.64;31.91;99847.77;103768;1300;25438;-24
2022/05/15 11:44:40;;;;;;;2.90;1.00;;;;;;;22.52;31.79;99841.39;103651;1300;22629;-28
2022/05/15 11:47:15;;;;;;;5.40;0.70;;;;;;;22.36;33.26;99838.84;103741;1300;22767;-28
2022/05/15 11:49:51;;;;;;;0.50;0.20;;;;;;;22.15;33.98;99844.91;103679;1300;24207;-24
2022/05/15 11:52:28;;;;;;;1.20;0.30;;;;;;;22.19;33.31;99841.59;103688;1300;23733;-27
2022/05/15 11:54:59;;;;;;;1.10;0.20;;;;;;;22.07;33.18;99835.38;103538;1300;24311;-28
2022/05/15 11:57:31;;;;;;;0.30;0.10;;;;;;;22.65;31.36;99833.71;103763;1300;25089;-28
2022/05/15 12:00:02;;;;;;;2.00;0.20;;;;;;;22.77;30.47;99833.88;103777;1300;24393;-24